createdAt,value
2022-12-23T00:01:00.767Z,100270.81
2022-12-23T00:03:28.781Z,100262.75
2022-12-23T00:05:55.625Z,100270.22
2022-12-23T00:08:22.942Z,100279.31
2022-12-23T00:10:51.110Z,100274.31
2022-12-23T00:13:36.336Z,100273.06
2022-12-23T00:16:09.701Z,100277.56
2022-12-23T00:18:36.553Z,100283.38
2022-12-23T00:21:10.439Z,100279.47
2022-12-23T00:23:39.345Z,100284.22
2022-12-23T00:26:06.776Z,100284.59
2022-12-23T00:28:33.762Z,100293.31
2022-12-23T00:31:06.059Z,100298.69
2022-12-23T00:33:38.065Z,100299.06
2022-12-23T00:36:19.163Z,100310.47
2022-12-23T00:39:04.775Z,100301.56
2022-12-23T00:41:49.729Z,100304.06
2022-12-23T00:44:16.193Z,100306.72
2022-12-23T00:46:42.756Z,100307.78
2022-12-23T00:49:30.917Z,100311.88
2022-12-23T00:51:57.578Z,100312.50
2022-12-23T00:54:24.194Z,100316.84
2022-12-23T00:56:50.582Z,100317.03
2022-12-23T00:59:18.195Z,100318.91
2022-12-23T01:02:03.487Z,100307.94
2022-12-23T01:04:48.872Z,100315.00
2022-12-23T01:07:15.442Z,100321.81
2022-12-23T01:09:41.914Z,100328.44
2022-12-23T01:12:08.491Z,100326.75
2022-12-23T01:14:35.351Z,100322.41
2022-12-23T01:17:01.891Z,100319.94
2022-12-23T01:19:28.789Z,100328.38
2022-12-23T01:21:55.261Z,100330.25
2022-12-23T01:24:22.239Z,100336.44
2022-12-23T01:26:48.766Z,100344.13
2022-12-23T01:29:15.197Z,100334.00
2022-12-23T01:31:41.706Z,100341.44
2022-12-23T01:34:08.194Z,100347.41
2022-12-23T01:36:34.587Z,100343.69
2022-12-23T01:39:01.029Z,100350.94
2022-12-23T01:41:49.063Z,100354.25
2022-12-23T01:44:46.335Z,100355.69
2022-12-23T01:47:28.880Z,100358.38
2022-12-23T01:50:06.147Z,100366.44
2022-12-23T01:52:40.032Z,100367.09
2022-12-23T01:55:07.399Z,100383.81
2022-12-23T01:57:35.971Z,100395.81
2022-12-23T02:00:23.255Z,100395.38
2022-12-23T02:03:10.448Z,100395.59
2022-12-23T02:05:37.989Z,100406.50
2022-12-23T02:08:23.140Z,100414.78
2022-12-23T02:11:25.379Z,100415.81
2022-12-23T02:14:35.763Z,100418.50
2022-12-23T02:17:15.669Z,100414.78
2022-12-23T02:20:02.521Z,100423.44
2022-12-23T02:23:16.549Z,100415.75
2022-12-23T02:25:59.280Z,100421.94
2022-12-23T02:29:02.795Z,100428.16
2022-12-23T02:31:45.401Z,100434.16
2022-12-23T02:34:16.981Z,100427.97
2022-12-23T02:37:01.762Z,100442.22
2022-12-23T02:39:53.696Z,100445.28
2022-12-23T02:42:34.475Z,100440.97
2022-12-23T02:45:23.228Z,100447.59
2022-12-23T02:47:59.985Z,100452.97
2022-12-23T02:50:36.565Z,100463.50
2022-12-23T02:53:28.630Z,100460.63
2022-12-23T02:55:57.040Z,100465.97
2022-12-23T02:58:31.401Z,100462.91
2022-12-23T03:00:59.808Z,100462.75
2022-12-23T03:03:26.821Z,100468.13
2022-12-23T03:05:55.073Z,100465.00
2022-12-23T03:08:32.331Z,100466.69
2022-12-23T03:11:08.328Z,100462.97
2022-12-23T03:14:05.080Z,100464.00
2022-12-23T03:16:48.252Z,100454.91
2022-12-23T03:19:32.350Z,100464.84
2022-12-23T03:22:10.550Z,100467.53
2022-12-23T03:24:41.052Z,100469.38
2022-12-23T03:27:18.615Z,100462.16
2022-12-23T03:29:55.415Z,100462.16
2022-12-23T03:32:23.287Z,100463.16
2022-12-23T03:34:55.406Z,100451.41
2022-12-23T03:37:26.881Z,100457.78
2022-12-23T03:40:01.396Z,100453.25
2022-12-23T03:42:33.585Z,100456.78
2022-12-23T03:45:37.009Z,100457.78
2022-12-23T03:47:59.207Z,100460.47
2022-12-23T03:50:26.169Z,100462.97
2022-12-23T03:53:04.939Z,100464.63
2022-12-23T03:55:38.562Z,100465.66
2022-12-23T03:58:28.677Z,100482.81
2022-12-23T04:01:34.944Z,100484.66
2022-12-23T04:04:10.771Z,100492.69
2022-12-23T04:06:48.379Z,100498.06
2022-12-23T04:09:21.777Z,100500.97
2022-12-23T04:11:49.391Z,100509.03
2022-12-23T04:14:20.417Z,100512.53
2022-12-23T04:16:48.366Z,100521.44
2022-12-23T04:19:15.332Z,100520.59
2022-12-23T04:21:41.716Z,100516.06
2022-12-23T04:24:08.427Z,100522.47
2022-12-23T04:26:34.808Z,100526.81
2022-12-23T04:29:01.209Z,100524.94
2022-12-23T04:31:27.607Z,100528.66
2022-12-23T04:33:54.052Z,100528.03
2022-12-23T04:36:20.437Z,100527.22
2022-12-23T04:38:46.871Z,100512.75
2022-12-23T04:41:13.374Z,100518.94
2022-12-23T04:43:39.835Z,100504.03
2022-12-23T04:46:06.363Z,100506.53
2022-12-23T04:48:32.874Z,100506.72
2022-12-23T04:51:02.828Z,100501.34
2022-12-23T04:53:29.243Z,100505.91
2022-12-23T04:55:55.800Z,100489.16
2022-12-23T04:58:24.064Z,100489.97
2022-12-23T05:01:01.102Z,100487.47
2022-12-23T05:03:27.674Z,100492.47
2022-12-23T05:05:54.113Z,100496.38
2022-12-23T05:08:20.620Z,100500.72
2022-12-23T05:10:47.005Z,100487.31
2022-12-23T05:13:13.481Z,100489.16
2022-12-23T05:15:39.982Z,100496.38
2022-12-23T05:18:06.380Z,100502.59
2022-12-23T05:20:32.768Z,100503.59
2022-12-23T05:22:59.192Z,100507.13
2022-12-23T05:25:25.625Z,100507.31
2022-12-23T05:27:52.027Z,100508.97
2022-12-23T05:30:18.517Z,100513.50
2022-12-23T05:32:46.010Z,100518.06
2022-12-23T05:35:12.418Z,100518.06
2022-12-23T05:37:38.788Z,100527.75
2022-12-23T05:40:05.656Z,100523.25
2022-12-23T05:42:32.261Z,100532.13
2022-12-23T05:44:58.656Z,100539.16
2022-12-23T05:47:25.069Z,100524.09
2022-12-23T05:49:51.524Z,100534.63
2022-12-23T05:52:17.872Z,100529.25
2022-12-23T05:54:44.343Z,100531.09
2022-12-23T05:57:10.786Z,100524.69
2022-12-23T05:59:37.211Z,100526.56
2022-12-23T06:02:04.088Z,100528.41
2022-12-23T06:04:30.711Z,100521.38
2022-12-23T06:06:57.184Z,100526.75
2022-12-23T06:09:23.629Z,100526.75
2022-12-23T06:11:50.124Z,100521.38
2022-12-23T06:14:16.519Z,100514.16
2022-12-23T06:16:42.972Z,100509.41
2022-12-23T06:19:09.519Z,100512.31
2022-12-23T06:21:35.972Z,100520.97
2022-12-23T06:24:02.422Z,100514.78
2022-12-23T06:26:28.814Z,100503.22
2022-12-23T06:28:55.220Z,100516.03
2022-12-23T06:31:21.612Z,100516.84
2022-12-23T06:33:48.098Z,100516.03
2022-12-23T06:36:14.535Z,100521.38
2022-12-23T06:38:40.986Z,100523.03
2022-12-23T06:41:07.856Z,100523.25
2022-12-23T06:43:34.246Z,100530.28
2022-12-23T06:46:00.760Z,100532.97
2022-12-23T06:48:27.229Z,100538.13
2022-12-23T06:50:53.590Z,100539.16
2022-12-23T06:53:20.015Z,100533.78
2022-12-23T06:55:46.448Z,100527.75
2022-12-23T06:58:12.853Z,100529.44
2022-12-23T07:00:39.345Z,100523.03
2022-12-23T07:03:05.903Z,100525.94
2022-12-23T07:05:37.327Z,100527.97
2022-12-23T07:08:04.768Z,100536.22
2022-12-23T07:10:31.184Z,100537.06
2022-12-23T07:12:57.623Z,100539.75
2022-12-23T07:15:24.085Z,100544.09
2022-12-23T07:17:50.539Z,100549.47
2022-12-23T07:20:16.984Z,100550.50
2022-12-23T07:22:43.469Z,100549.66
2022-12-23T07:25:09.979Z,100559.38
2022-12-23T07:27:36.379Z,100565.56
2022-12-23T07:30:03.129Z,100561.84
2022-12-23T07:32:29.559Z,100562.69
2022-12-23T07:34:56.019Z,100562.69
2022-12-23T07:37:22.479Z,100565.38
2022-12-23T07:39:48.895Z,100557.31
2022-12-23T07:45:01.831Z,100541.84
2022-12-23T07:47:28.194Z,100538.34
2022-12-23T07:49:54.559Z,100531.72
2022-12-23T07:52:20.999Z,100528.22
2022-12-23T07:54:47.450Z,100537.97
2022-12-23T07:57:13.842Z,100530.91
2022-12-23T07:59:40.223Z,100532.59
2022-12-23T08:02:06.788Z,100518.13
2022-12-23T08:04:33.379Z,100513.56
2022-12-23T08:06:59.812Z,100516.25
2022-12-23T08:09:26.242Z,100513.56
2022-12-23T08:11:52.689Z,100515.44
2022-12-23T08:14:19.623Z,100511.91
2022-12-23T08:16:47.873Z,100505.72
2022-12-23T08:19:14.307Z,100507.38
2022-12-23T08:21:40.696Z,100512.53
2022-12-23T08:24:07.123Z,100518.56
2022-12-23T08:26:33.714Z,100509.84
2022-12-23T08:29:00.498Z,100504.47
2022-12-23T08:31:30.008Z,100516.88
2022-12-23T08:33:57.640Z,100508.19
2022-12-23T08:36:26.640Z,100506.72
2022-12-23T08:38:54.861Z,100505.91
2022-12-23T08:41:25.084Z,100496.19
2022-12-23T08:43:51.602Z,100484.22
2022-12-23T08:46:18.888Z,100475.53
2022-12-23T08:48:49.410Z,100475.91
2022-12-23T08:51:18.126Z,100475.06
2022-12-23T08:53:44.778Z,100479.38
2022-12-23T08:56:16.905Z,100474.84
2022-12-23T08:58:45.868Z,100475.66
2022-12-23T09:01:14.757Z,100463.28
2022-12-23T09:03:42.584Z,100467.59
2022-12-23T09:06:14.486Z,100469.25
2022-12-23T09:08:41.291Z,100477.53
2022-12-23T09:11:12.778Z,100475.22
2022-12-23T09:13:39.524Z,100471.09
2022-12-23T09:16:07.459Z,100455.97
2022-12-23T09:18:34.997Z,100462.81
2022-12-23T09:21:04.735Z,100455.59
2022-12-23T09:23:31.498Z,100459.09
2022-12-23T09:25:58.327Z,100456.03
2022-12-23T09:28:25.214Z,100457.50
2022-12-23T09:30:52.061Z,100450.28
2022-12-23T09:33:19.721Z,100451.28
2022-12-23T09:35:46.295Z,100459.34
2022-12-23T09:38:12.928Z,100450.88
2022-12-23T09:40:41.630Z,100458.50
2022-12-23T09:43:32.350Z,100453.13
2022-12-23T09:46:17.408Z,100447.75
2022-12-23T09:48:56.285Z,100444.22
2022-12-23T09:51:23.806Z,100420.25
2022-12-23T09:54:17.215Z,100416.72
2022-12-23T09:57:15.258Z,100413.59
2022-12-23T10:00:01.777Z,100403.94
2022-12-23T10:02:50.713Z,100404.56
2022-12-23T10:05:39.389Z,100399.00
2022-12-23T10:08:33.226Z,100401.88
2022-12-23T10:11:10.656Z,100387.63
2022-12-23T10:13:45.132Z,100379.13
2022-12-23T10:16:16.467Z,100378.09
2022-12-23T10:19:06.810Z,100383.28
2022-12-23T10:21:48.328Z,100380.59
2022-12-23T10:24:26.537Z,100371.72
2022-12-23T10:26:56.207Z,100360.13
2022-12-23T10:29:30.054Z,100367.19
2022-12-23T10:32:19.891Z,100359.50
2022-12-23T10:34:51.525Z,100362.41
2022-12-23T10:37:24.949Z,100358.88
2022-12-23T10:40:25.442Z,100353.94
2022-12-23T10:43:34.894Z,100348.38
2022-12-23T10:46:50.537Z,100350.66
2022-12-23T10:49:38.156Z,100361.84
2022-12-23T10:52:17.410Z,100345.72
2022-12-23T10:54:46.465Z,100349.22
2022-12-23T10:57:15.513Z,100334.78
2022-12-23T10:59:41.973Z,100333.75
2022-12-23T11:02:14.431Z,100330.03
2022-12-23T11:04:44.181Z,100319.50
2022-12-23T11:10:06.772Z,100316.81
2022-12-23T11:12:42.651Z,100312.88
2022-12-23T11:15:36.916Z,100323.44
2022-12-23T11:18:03.300Z,100307.13
2022-12-23T11:20:30.811Z,100298.03
2022-12-23T11:23:01.783Z,100297.84
2022-12-23T11:25:37.781Z,100293.50
2022-12-23T11:28:10.352Z,100275.31
2022-12-23T11:30:55.106Z,100273.47
2022-12-23T11:33:29.029Z,100261.47
2022-12-23T11:36:23.909Z,100257.75
2022-12-23T11:39:10.620Z,100245.78
2022-12-23T11:41:42.619Z,100250.13
2022-12-23T11:44:25.980Z,100248.25
2022-12-23T11:46:52.732Z,100239.78
2022-12-23T11:49:25.277Z,100239.78
2022-12-23T11:52:14.849Z,100230.50
2022-12-23T11:54:41.534Z,100226.38
2022-12-23T11:57:17.687Z,100218.69
2022-12-23T11:59:49.772Z,100202.84
2022-12-23T12:02:32.545Z,100200.19
2022-12-23T12:05:02.507Z,100203.72
2022-12-23T12:07:30.540Z,100195.22
2022-12-23T12:09:59.799Z,100201.00
2022-12-23T12:12:28.733Z,100187.16
2022-12-23T12:14:57.923Z,100181.19
2022-12-23T12:17:32.959Z,100179.09
2022-12-23T12:20:21.707Z,100173.91
2022-12-23T12:23:11.381Z,100165.44
2022-12-23T12:25:50.519Z,100164.59
2022-12-23T12:28:31.094Z,100148.47
2022-12-23T12:31:16.899Z,100141.47
2022-12-23T12:33:57.737Z,100136.50
2022-12-23T12:36:44.401Z,100132.78
2022-12-23T12:39:21.357Z,100123.47
2022-12-23T12:42:01.721Z,100121.44
2022-12-23T12:44:44.755Z,100123.06
2022-12-23T12:47:53.310Z,100113.16
2022-12-23T12:50:29.611Z,100112.13
2022-12-23T12:53:02.454Z,100103.63
2022-12-23T12:55:35.579Z,100103.63
2022-12-23T12:58:04.602Z,100096.63
2022-12-23T13:00:45.983Z,100098.28
2022-12-23T13:03:52.362Z,100097.63
2022-12-23T13:06:47.878Z,100091.03
2022-12-23T13:09:29.765Z,100091.84
2022-12-23T13:12:17.338Z,100090.00
2022-12-23T13:14:51.924Z,100090.00
2022-12-23T13:17:29.666Z,100097.44
2022-12-23T13:20:31.331Z,100098.47
2022-12-23T13:23:34.274Z,100084.19
2022-12-23T13:26:01.521Z,100069.13
2022-12-23T13:28:27.851Z,100075.53
2022-12-23T13:31:08.176Z,100073.44
2022-12-23T13:33:37.512Z,100065.00
2022-12-23T13:36:28.967Z,100056.53
2022-12-23T13:39:30.616Z,100042.47
2022-12-23T13:42:05.171Z,100032.97
2022-12-23T13:44:34.471Z,100020.75
2022-12-23T13:47:13.980Z,100018.50
2022-12-23T13:49:40.411Z,100028.63
2022-12-23T13:52:21.439Z,100024.72
2022-12-23T13:55:08.488Z,100028.63
2022-12-23T13:58:03.190Z,100022.63
2022-12-23T14:00:32.548Z,100013.56
2022-12-23T14:03:02.073Z,100005.06
2022-12-23T14:05:31.291Z,99994.94
2022-12-23T14:08:22.890Z,99982.56
2022-12-23T14:11:03.569Z,99992.03
2022-12-23T14:13:55.072Z,99988.75
2022-12-23T14:16:42.580Z,99986.66
2022-12-23T14:19:25.964Z,99986.47
2022-12-23T14:22:14.195Z,99977.78
2022-12-23T14:25:17.227Z,99966.63
2022-12-23T14:28:08.582Z,99968.31
2022-12-23T14:30:41.219Z,99968.91
2022-12-23T14:33:27.535Z,99958.97
2022-12-23T14:35:58.245Z,99958.56
2022-12-23T14:38:28.031Z,99957.97
2022-12-23T14:40:58.842Z,99960.84
2022-12-23T14:43:31.526Z,99937.94
2022-12-23T14:45:59.332Z,99966.66
2022-12-23T14:48:47.726Z,99959.00
2022-12-23T14:51:14.081Z,99962.28
2022-12-23T14:53:52.569Z,99966.00
2022-12-23T14:56:18.957Z,99974.28
2022-12-23T14:58:52.333Z,99977.59
2022-12-23T15:01:37.931Z,99997.66
2022-12-23T15:04:15.877Z,99988.31
2022-12-23T15:06:48.441Z,99988.75
2022-12-23T15:09:47.240Z,99995.75
2022-12-23T15:12:27.298Z,100002.16
2022-12-23T15:14:59.073Z,99995.75
2022-12-23T15:17:35.034Z,99999.09
2022-12-23T15:20:10.789Z,99991.25
2022-12-23T15:22:38.479Z,99978.81
2022-12-23T15:25:22.866Z,99975.31
2022-12-23T15:27:50.387Z,99980.91
2022-12-23T15:30:28.678Z,99988.75
2022-12-23T15:33:27.961Z,99980.50
2022-12-23T15:35:53.904Z,99986.06
2022-12-23T15:38:22.890Z,99986.28
2022-12-23T15:41:15.756Z,99989.38
2022-12-23T15:43:43.579Z,99982.75
2022-12-23T15:46:17.218Z,99979.66
2022-12-23T15:48:44.365Z,99978.19
2022-12-23T15:51:42.707Z,99979.22
2022-12-23T15:54:08.418Z,99978.00
2022-12-23T15:56:38.700Z,99982.31
2022-12-23T15:59:05.668Z,99970.97
2022-12-23T16:01:40.940Z,99969.94
2022-12-23T16:04:08.886Z,99971.81
2022-12-23T16:06:36.509Z,99993.50
2022-12-23T16:09:33.242Z,100002.81
2022-12-23T16:12:19.438Z,99983.56
2022-12-23T16:14:57.674Z,99969.13
2022-12-23T16:17:32.191Z,99976.53
2022-12-23T16:20:25.113Z,99991.66
2022-12-23T16:22:54.081Z,100002.78
2022-12-23T16:25:26.460Z,99999.72
2022-12-23T16:27:59.135Z,99997.44
2022-12-23T16:30:31.620Z,99989.16
2022-12-23T16:33:03.181Z,99986.25
2022-12-23T16:35:38.378Z,99990.63
2022-12-23T16:38:16.995Z,99996.59
2022-12-23T16:40:48.646Z,99991.84
2022-12-23T16:43:15.783Z,99989.56
2022-12-23T16:45:44.117Z,99997.22
2022-12-23T16:48:19.955Z,99991.84
2022-12-23T16:50:46.830Z,99983.78
2022-12-23T16:53:13.673Z,99986.66
2022-12-23T16:55:46.214Z,99987.28
2022-12-23T16:58:16.784Z,99973.03
2022-12-23T17:00:43.194Z,99953.63
2022-12-23T17:03:15.652Z,99968.06
2022-12-23T17:05:42.077Z,99986.25
2022-12-23T17:08:09.924Z,99994.13
2022-12-23T17:10:37.900Z,99992.25
2022-12-23T17:13:04.799Z,99991.22
2022-12-23T17:15:31.322Z,99988.34
2022-12-23T17:17:57.789Z,99993.31
2022-12-23T17:20:24.493Z,99989.56
2022-12-23T17:22:59.063Z,99982.56
2022-12-23T17:25:26.695Z,99980.88
2022-12-23T17:27:53.627Z,99989.56
2022-12-23T17:30:23.388Z,99984.81
2022-12-23T17:32:56.965Z,99977.78
2022-12-23T17:35:25.140Z,99984.19
2022-12-23T17:37:51.844Z,99974.91
2022-12-23T17:40:18.636Z,99973.03
2022-12-23T17:42:45.890Z,99978.63
2022-12-23T17:45:27.615Z,99975.72
2022-12-23T17:47:54.644Z,99971.81
2022-12-23T17:50:21.350Z,99977.19
2022-12-23T17:52:47.984Z,99982.56
2022-12-23T17:55:19.415Z,99988.13
2022-12-23T17:57:45.792Z,99988.75
2022-12-23T18:00:13.215Z,99988.75
2022-12-23T18:02:40.625Z,99995.53
2022-12-23T18:05:29.576Z,99987.06
2022-12-23T18:08:00.858Z,99983.56
2022-12-23T18:10:30.713Z,99990.81
2022-12-23T18:13:01.089Z,99994.75
2022-12-23T18:15:39.546Z,99995.53
2022-12-23T18:18:24.612Z,99988.72
2022-12-23T18:20:56.052Z,99986.66
2022-12-23T18:23:31.880Z,99980.06
2022-12-23T18:25:59.211Z,99993.69
2022-12-23T18:28:26.587Z,99994.31
2022-12-23T18:30:55.679Z,99992.25
2022-12-23T18:33:24.042Z,99991.63
2022-12-23T18:35:50.966Z,100002.97
2022-12-23T18:38:18.412Z,99998.84
2022-12-23T18:40:45.196Z,99997.41
2022-12-23T18:43:20.301Z,100000.31
2022-12-23T18:45:52.477Z,100000.72
2022-12-23T18:48:19.860Z,100004.81
2022-12-23T18:50:46.724Z,100009.19
2022-12-23T18:53:24.752Z,100009.59
2022-12-23T18:55:53.349Z,100015.78
2022-12-23T18:58:20.709Z,100023.44
2022-12-23T19:00:48.521Z,100015.56
2022-12-23T19:03:29.418Z,100025.91
2022-12-23T19:05:57.264Z,100018.03
2022-12-23T19:08:27.207Z,100022.41
2022-12-23T19:10:55.414Z,100026.09
2022-12-23T19:13:22.397Z,100021.78
2022-12-23T19:15:49.090Z,100018.66
2022-12-23T19:18:19.332Z,100016.38
2022-12-23T19:20:47.015Z,100025.88
2022-12-23T19:23:13.969Z,100027.16
2022-12-23T19:25:50.739Z,100024.25
2022-12-23T19:28:20.942Z,100025.06
2022-12-23T19:30:47.443Z,100027.56
2022-12-23T19:33:13.917Z,100033.13
2022-12-23T19:35:43.901Z,100036.63
2022-12-23T19:38:10.676Z,100037.28
2022-12-23T19:40:37.135Z,100057.94
2022-12-23T19:43:04.058Z,100055.66
2022-12-23T19:45:30.733Z,100064.13
2022-12-23T19:47:57.125Z,100061.44
2022-12-23T19:50:23.685Z,100066.41
2022-12-23T19:52:50.629Z,100066.81
2022-12-23T19:55:17.237Z,100063.94
2022-12-23T19:57:43.895Z,100076.09
2022-12-23T20:00:10.877Z,100074.06
2022-12-23T20:02:41.387Z,100079.03
2022-12-23T20:05:09.624Z,100080.88
2022-12-23T20:07:36.437Z,100089.59
2022-12-23T20:10:04.315Z,100090.41
2022-12-23T20:12:30.739Z,100097.03
2022-12-23T20:14:58.219Z,100103.63
2022-12-23T20:17:24.576Z,100098.88
2022-12-23T20:19:50.976Z,100108.81
2022-12-23T20:22:17.706Z,100105.09
2022-12-23T20:24:44.139Z,100101.78
2022-12-23T20:27:12.511Z,100112.75
2022-12-23T20:29:40.364Z,100116.88
2022-12-23T20:32:06.856Z,100127.44
2022-12-23T20:34:38.646Z,100115.00
2022-12-23T20:37:06.932Z,100121.03
2022-12-23T20:39:33.624Z,100126.81
2022-12-23T20:42:00.035Z,100114.59
2022-12-23T20:44:35.758Z,100136.50
2022-12-23T20:47:03.551Z,100140.88
2022-12-23T20:49:30.133Z,100142.91
2022-12-23T20:51:56.692Z,100140.88
2022-12-23T20:54:29.780Z,100151.00
2022-12-23T20:56:58.932Z,100150.59
2022-12-23T20:59:25.375Z,100141.06
2022-12-23T21:01:52.216Z,100146.47
2022-12-23T21:04:19.229Z,100147.50
2022-12-23T21:06:45.773Z,100156.38
2022-12-23T21:09:14.838Z,100171.47
2022-12-23T21:11:44.790Z,100177.06
2022-12-23T21:14:12.738Z,100184.69
2022-12-23T21:16:40.027Z,100182.41
2022-12-23T21:19:09.010Z,100180.97
2022-12-23T21:21:35.629Z,100194.63
2022-12-23T21:24:04.268Z,100199.78
2022-12-23T21:26:32.592Z,100205.59
2022-12-23T21:29:00.543Z,100205.59
2022-12-23T21:31:29.157Z,100210.13
2022-12-23T21:33:55.684Z,100209.31
2022-12-23T21:36:25.261Z,100223.34
2022-12-23T21:38:51.771Z,100227.69
2022-12-23T21:41:27.517Z,100229.75
2022-12-23T21:43:56.411Z,100231.63
2022-12-23T21:46:24.210Z,100240.72
2022-12-23T21:48:51.061Z,100248.38
2022-12-23T21:51:36.664Z,100258.09
2022-12-23T21:54:05.816Z,100250.63
2022-12-23T21:56:32.331Z,100252.50
2022-12-23T21:59:05.053Z,100276.91
2022-12-23T22:01:32.394Z,100266.34
2022-12-23T22:03:59.267Z,100283.06
2022-12-23T22:06:29.258Z,100282.66
2022-12-23T22:08:56.857Z,100290.53
2022-12-23T22:11:26.976Z,100281.03
2022-12-23T22:13:53.438Z,100289.69
2022-12-23T22:16:23.243Z,100293.22
2022-12-23T22:18:50.963Z,100299.22
2022-12-23T22:21:19.930Z,100306.03
2022-12-23T22:23:47.397Z,100314.88
2022-12-23T22:26:23.901Z,100311.63
2022-12-23T22:28:52.022Z,100314.09
2022-12-23T22:31:24.078Z,100305.81
2022-12-23T22:33:50.672Z,100305.44
2022-12-23T22:36:17.381Z,100314.53
2022-12-23T22:38:44.317Z,100332.09
2022-12-23T22:41:10.979Z,100321.28
2022-12-23T22:43:37.872Z,100322.72
2022-12-23T22:46:04.855Z,100331.00
2022-12-23T22:48:31.355Z,100324.19
2022-12-23T22:51:03.052Z,100331.00
2022-12-23T22:53:30.165Z,100334.34
2022-12-23T22:56:00.505Z,100338.47
2022-12-23T22:58:28.630Z,100343.78
2022-12-23T23:00:55.369Z,100340.94
2022-12-23T23:03:22.261Z,100354.97
2022-12-23T23:05:59.005Z,100352.94
2022-12-23T23:08:25.891Z,100358.31
2022-12-23T23:10:52.329Z,100350.22
2022-12-23T23:13:18.849Z,100356.06
2022-12-23T23:15:47.791Z,100358.31
2022-12-23T23:18:14.818Z,100370.94
2022-12-23T23:20:41.249Z,100374.66
2022-12-23T23:23:07.729Z,100371.94
2022-12-23T23:25:34.172Z,100379.00
2022-12-23T23:28:00.638Z,100376.75
2022-12-23T23:30:27.009Z,100380.84
2022-12-23T23:32:53.388Z,100393.50
2022-12-23T23:35:19.873Z,100397.63
2022-12-23T23:37:46.285Z,100380.03
2022-12-23T23:40:12.850Z,100396.38
2022-12-23T23:42:39.258Z,100389.28
2022-12-23T23:45:06.348Z,100403.19
2022-12-23T23:47:34.711Z,100404.66
2022-12-23T23:50:01.994Z,100403.63
2022-12-23T23:52:28.986Z,100416.16
2022-12-23T23:54:55.691Z,100431.88
2022-12-23T23:57:23.057Z,100424.22
2022-12-23T23:59:49.611Z,100430.03
